Time;durP1;ratioP1;P1;durP2;ratioP2;P2;SDS_P1;SDS_P2;PMS_P1;PMS_P2;Temp;Humidity;BMP_temperature;BMP_pressure;BME280_temperature;BME280_humidity;BME280_pressure;Samples;Min_cycle;Max_cycle;Signal;HPM_P1;HPM_P2
2022/08/03 00:01:00;;;;;;;5.65;4.00;;;;;;;19.39;100.00;98126.16;5010279;28;20037;-75
2022/08/03 00:03:25;;;;;;;4.95;4.35;;;;;;;19.46;100.00;98125.59;4992806;28;20068;-75
2022/08/03 00:05:51;;;;;;;5.68;3.97;;;;;;;19.56;100.00;98125.94;5010407;28;20546;-76
2022/08/03 00:08:16;;;;;;;8.52;4.70;;;;;;;19.51;100.00;98120.66;5010333;28;20034;-75
2022/08/03 00:10:41;;;;;;;8.95;4.57;;;;;;;19.54;100.00;98133.00;5010255;28;20026;-74
2022/08/03 00:13:07;;;;;;;12.70;5.10;;;;;;;19.63;100.00;98126.16;5010266;28;20034;-76
2022/08/03 00:15:32;;;;;;;7.53;4.53;;;;;;;19.55;100.00;98117.97;4992626;28;20069;-74
2022/08/03 00:17:57;;;;;;;6.90;4.55;;;;;;;19.48;100.00;98118.56;4992521;28;20036;-75
2022/08/03 00:20:23;;;;;;;7.57;4.38;;;;;;;19.59;100.00;98114.13;4992541;28;20042;-75
2022/08/03 00:22:49;;;;;;;7.43;4.50;;;;;;;19.61;100.00;98122.09;4992200;28;20391;-74
2022/08/03 00:25:15;;;;;;;5.18;4.20;;;;;;;19.64;100.00;98124.22;5009987;28;20034;-74
2022/08/03 00:27:40;;;;;;;6.18;4.30;;;;;;;19.63;100.00;98117.84;5010218;28;20026;-75
2022/08/03 00:30:07;;;;;;;7.07;4.20;;;;;;;19.64;100.00;98113.09;5012532;28;20030;-75
2022/08/03 00:32:32;;;;;;;4.63;4.00;;;;;;;19.59;100.00;98110.56;5013599;28;20036;-76
2022/08/03 00:34:57;;;;;;;4.72;4.20;;;;;;;19.61;100.00;98127.66;5013707;28;20029;-75
2022/08/03 00:37:23;;;;;;;7.80;4.22;;;;;;;19.48;100.00;98120.53;5013544;28;20048;-74
2022/08/03 00:39:49;;;;;;;6.30;4.63;;;;;;;19.39;100.00;98114.28;5013305;28;20517;-75
2022/08/03 00:42:15;;;;;;;5.05;4.00;;;;;;;19.29;100.00;98109.19;5013148;28;20026;-74
2022/08/03 00:44:43;;;;;;;5.70;4.57;;;;;;;19.30;100.00;98116.34;5013206;28;20054;-75
2022/08/03 00:47:09;;;;;;;4.93;3.80;;;;;;;19.38;100.00;98121.78;5013185;28;20029;-75
2022/08/03 00:49:39;;;;;;;5.80;4.30;;;;;;;19.39;100.00;98128.16;5013217;28;20030;-74
2022/08/03 00:52:07;;;;;;;6.35;4.80;;;;;;;19.32;100.00;98117.63;5013248;28;20514;-75
2022/08/03 00:54:33;;;;;;;6.30;4.43;;;;;;;19.25;100.00;98121.00;5013196;28;20053;-77
2022/08/03 00:56:59;;;;;;;6.55;4.40;;;;;;;19.15;100.00;98115.91;5013137;28;20029;-74
2022/08/03 00:59:25;;;;;;;4.85;4.35;;;;;;;19.07;100.00;98125.16;5012994;28;20030;-75
2022/08/03 01:01:52;;;;;;;9.07;4.25;;;;;;;18.95;100.00;98127.91;5012841;28;20080;-75
2022/08/03 01:04:17;;;;;;;4.97;4.07;;;;;;;18.87;100.00;98137.16;4995425;28;20021;-75
2022/08/03 01:07:16;;;;;;;6.00;4.63;;;;;;;18.86;100.00;98132.75;5012948;28;20026;-75
2022/08/03 01:10:09;;;;;;;6.63;4.75;;;;;;;18.91;100.00;98129.78;4973012;28;20053;-75
2022/08/03 01:12:41;;;;;;;5.10;4.38;;;;;;;18.79;100.00;98140.03;5012836;28;20045;-76
2022/08/03 01:15:09;;;;;;;5.68;4.40;;;;;;;18.78;100.00;98133.69;5012502;28;20026;-75
2022/08/03 01:17:54;;;;;;;12.15;4.78;;;;;;;18.81;100.00;98130.22;5012727;28;20034;-76
2022/08/03 01:20:23;;;;;;;6.07;4.22;;;;;;;18.83;100.00;98129.84;4996098;28;20042;-75
2022/08/03 01:23:14;;;;;;;5.30;4.13;;;;;;;18.78;100.00;98130.91;5013124;28;20414;-76
2022/08/03 01:25:50;;;;;;;5.57;4.57;;;;;;;18.78;100.00;98132.84;5001801;28;20041;-76
2022/08/03 01:28:38;;;;;;;5.57;4.53;;;;;;;18.83;100.00;98124.31;5012902;28;20069;-76
2022/08/03 01:31:07;;;;;;;5.65;4.47;;;;;;;18.82;100.00;98117.97;5012187;28;20026;-74
2022/08/03 01:33:40;;;;;;;6.05;4.47;;;;;;;18.81;100.00;98119.13;5012465;28;20034;-75
2022/08/03 01:36:20;;;;;;;5.05;4.35;;;;;;;18.83;100.00;98108.50;5012320;28;20034;-75
2022/08/03 01:38:52;;;;;;;6.38;4.55;;;;;;;18.90;100.00;98114.28;5012077;28;20076;-75
2022/08/03 01:41:21;;;;;;;7.63;4.80;;;;;;;18.90;100.00;98108.72;5011624;28;20037;-76
2022/08/03 01:43:49;;;;;;;5.45;4.35;;;;;;;18.97;100.00;98117.28;5012747;28;20044;-75
2022/08/03 01:46:19;;;;;;;4.90;4.10;;;;;;;18.90;100.00;98119.81;5012408;28;20129;-76
2022/08/03 01:48:46;;;;;;;5.40;4.53;;;;;;;18.92;100.00;98114.72;5012507;28;20022;-76
2022/08/03 01:51:15;;;;;;;4.82;4.30;;;;;;;18.88;100.00;98115.78;5013124;28;20509;-77
2022/08/03 01:53:42;;;;;;;4.78;3.97;;;;;;;18.83;100.00;98119.56;5013774;28;20037;-77
2022/08/03 01:56:08;;;;;;;5.90;4.53;;;;;;;18.84;100.00;98110.13;5014011;28;20040;-76
2022/08/03 01:58:35;;;;;;;7.35;5.20;;;;;;;18.82;100.00;98112.44;5012217;28;20033;-75
2022/08/03 02:01:02;;;;;;;6.65;4.60;;;;;;;18.81;100.00;98110.81;5011938;28;20036;-74
2022/08/03 02:03:30;;;;;;;8.10;4.70;;;;;;;18.80;100.00;98111.94;5011922;28;20040;-75
2022/08/03 02:05:57;;;;;;;6.70;4.55;;;;;;;18.82;100.00;98100.53;5011777;28;20073;-75
2022/08/03 02:08:25;;;;;;;5.82;4.97;;;;;;;18.82;100.00;98106.91;5012082;28;20050;-74
2022/08/03 02:10:53;;;;;;;5.63;5.05;;;;;;;18.76;100.00;98102.72;5011827;28;20031;-76
2022/08/03 02:13:20;;;;;;;11.18;5.05;;;;;;;18.73;100.00;98104.22;5011788;28;20065;-76
2022/08/03 02:15:47;;;;;;;7.47;5.15;;;;;;;18.73;100.00;98103.41;5011737;28;20021;-75
2022/08/03 02:18:13;;;;;;;5.78;5.00;;;;;;;18.72;100.00;98104.56;5011604;28;20022;-76
2022/08/03 02:20:41;;;;;;;5.57;4.28;;;;;;;18.58;100.00;98096.56;5011657;28;20115;-76
2022/08/03 02:23:08;;;;;;;6.32;4.72;;;;;;;18.50;100.00;98116.06;5011657;28;20030;-76
2022/08/03 02:25:44;;;;;;;5.53;4.35;;;;;;;18.45;100.00;98110.72;5011420;28;20021;-74
2022/08/03 02:28:15;;;;;;;7.72;4.30;;;;;;;18.41;100.00;98107.84;4993782;28;20065;-75
2022/08/03 02:30:44;;;;;;;7.68;4.47;;;;;;;18.41;100.00;98118.91;5011528;28;20030;-75
2022/08/03 02:33:23;;;;;;;5.28;4.78;;;;;;;18.43;100.00;98104.69;5011391;28;20029;-76
2022/08/03 02:35:51;;;;;;;5.13;4.30;;;;;;;18.42;100.00;98105.88;5011353;28;20037;-74
2022/08/03 02:38:20;;;;;;;10.13;4.80;;;;;;;18.39;100.00;98109.31;5011118;28;20022;-74
2022/08/03 02:40:45;;;;;;;7.20;4.50;;;;;;;18.34;100.00;98109.53;5011249;28;20446;-74
2022/08/03 02:43:17;;;;;;;5.38;4.53;;;;;;;18.32;100.00;98104.34;5011214;28;20034;-76
2022/08/03 02:45:45;;;;;;;5.28;4.38;;;;;;;18.27;100.00;98101.78;5011238;28;20036;-74
2022/08/03 02:48:14;;;;;;;5.53;4.03;;;;;;;18.24;100.00;98102.47;5012109;28;20049;-74
2022/08/03 02:50:43;;;;;;;13.57;4.50;;;;;;;18.24;100.00;98108.00;5015387;28;20029;-76
2022/08/03 02:53:10;;;;;;;8.27;4.47;;;;;;;18.22;100.00;98115.03;5016531;28;20033;-76
2022/08/03 02:55:36;;;;;;;7.18;4.95;;;;;;;18.20;100.00;98113.41;5012002;28;20030;-75
2022/08/03 02:58:03;;;;;;;7.28;4.57;;;;;;;18.16;100.00;98112.50;5011846;28;20386;-74
2022/08/03 03:00:32;;;;;;;5.88;4.50;;;;;;;18.09;100.00;98116.94;5011205;28;20029;-75
2022/08/03 03:03:00;;;;;;;5.63;4.28;;;;;;;18.01;100.00;98118.63;5010901;28;20036;-75
2022/08/03 03:05:26;;;;;;;5.18;4.65;;;;;;;17.98;100.00;98116.53;5010848;28;20026;-75
2022/08/03 03:07:53;;;;;;;5.00;4.47;;;;;;;17.94;100.00;98107.31;4993207;28;20018;-75
2022/08/03 03:10:25;;;;;;;7.18;5.10;;;;;;;17.90;100.00;98117.44;5010736;28;20490;-74
2022/08/03 03:12:55;;;;;;;7.95;4.95;;;;;;;17.84;100.00;98116.03;5009569;28;20438;-74
2022/08/03 03:15:22;;;;;;;5.00;4.00;;;;;;;17.87;100.00;98115.34;5010813;28;20064;-76
2022/08/03 03:17:49;;;;;;;6.22;4.93;;;;;;;17.85;100.00;98114.91;5010945;28;20018;-75
2022/08/03 03:20:14;;;;;;;5.05;4.45;;;;;;;17.88;100.00;98117.00;5010638;28;20041;-75
2022/08/03 03:22:40;;;;;;;4.80;4.30;;;;;;;17.87;100.00;98109.81;5010589;28;20030;-76
2022/08/03 03:25:06;;;;;;;6.45;4.55;;;;;;;17.84;100.00;98110.50;5010870;28;20052;-75
2022/08/03 03:27:32;;;;;;;6.20;4.95;;;;;;;17.78;100.00;98116.59;5010855;28;20037;-74
2022/08/03 03:29:58;;;;;;;5.32;4.38;;;;;;;17.82;100.00;98117.53;5010800;28;20109;-74
2022/08/03 03:32:27;;;;;;;6.68;4.72;;;;;;;17.82;100.00;98114.75;5010464;28;20192;-75
2022/08/03 03:34:54;;;;;;;6.07;4.97;;;;;;;17.82;100.00;98112.81;5010639;28;20025;-74
2022/08/03 03:37:20;;;;;;;7.40;5.15;;;;;;;17.89;100.00;98128.84;5010724;28;20390;-76
2022/08/03 03:39:45;;;;;;;9.80;5.05;;;;;;;17.82;100.00;98123.88;5016311;28;20050;-75
2022/08/03 03:42:11;;;;;;;5.53;4.65;;;;;;;17.82;100.00;98134.94;5014794;28;20032;-74
2022/08/03 03:44:36;;;;;;;6.38;5.25;;;;;;;17.89;100.00;98126.06;5010618;28;20030;-76
2022/08/03 03:47:02;;;;;;;8.25;4.50;;;;;;;17.89;100.00;98124.13;5010585;28;20096;-75
2022/08/03 03:49:27;;;;;;;9.93;4.78;;;;;;;17.99;100.00;98125.66;4993038;28;20523;-75
2022/08/03 03:51:54;;;;;;;5.97;4.53;;;;;;;17.90;100.00;98127.72;5010409;28;20441;-74
2022/08/03 03:54:20;;;;;;;7.22;4.72;;;;;;;18.00;100.00;98130.06;5010494;28;20029;-75
2022/08/03 03:56:45;;;;;;;5.63;4.70;;;;;;;18.05;100.00;98127.06;5010428;28;20057;-75
2022/08/03 03:59:11;;;;;;;11.70;5.65;;;;;;;18.00;100.00;98132.84;5010304;28;20049;-76
2022/08/03 04:01:38;;;;;;;4.80;4.30;;;;;;;18.14;100.00;98142.47;5010388;28;20026;-75
2022/08/03 04:12:25;;;;;;;5.60;4.82;;;;;;;18.16;100.00;98142.94;5014281;28;20036;-75
2022/08/03 04:14:55;;;;;;;6.28;4.75;;;;;;;18.32;100.00;98150.63;5014021;28;20069;-76
2022/08/03 04:17:25;;;;;;;7.35;4.68;;;;;;;18.35;100.00;98147.97;5014072;28;20034;-76
2022/08/03 04:19:53;;;;;;;6.38;4.75;;;;;;;18.47;100.00;98152.75;4996761;28;20038;-75
2022/08/03 04:22:24;;;;;;;8.75;4.50;;;;;;;18.51;100.00;98153.72;5013746;28;20117;-76
2022/08/03 04:25:04;;;;;;;5.80;4.88;;;;;;;18.49;100.00;98154.03;5013695;28;20065;-74
2022/08/03 04:27:33;;;;;;;5.63;4.45;;;;;;;18.49;100.00;98158.75;5013892;28;20391;-74
2022/08/03 04:30:02;;;;;;;6.03;4.45;;;;;;;18.56;100.00;98153.50;5013801;28;20056;-76
2022/08/03 04:32:29;;;;;;;5.05;4.47;;;;;;;18.63;100.00;98162.88;5013750;28;20714;-74
2022/08/03 04:34:55;;;;;;;5.03;4.22;;;;;;;18.76;100.00;98160.13;5013567;28;20094;-73
2022/08/03 04:37:32;;;;;;;5.80;4.90;;;;;;;18.89;100.00;98164.53;5013632;28;20164;-75
2022/08/03 04:40:00;;;;;;;8.30;5.05;;;;;;;19.07;100.00;98161.22;5013192;28;20060;-74
2022/08/03 04:42:27;;;;;;;4.97;4.18;;;;;;;19.61;100.00;98160.97;5013319;28;20113;-74
2022/08/03 04:44:55;;;;;;;5.93;4.65;;;;;;;20.62;100.00;98158.78;5013332;28;20404;-75
2022/08/03 04:47:21;;;;;;;6.13;5.03;;;;;;;21.59;100.00;98183.16;5013363;28;20108;-75
2022/08/03 04:49:47;;;;;;;5.75;4.60;;;;;;;21.54;100.00;98183.44;4995427;28;20061;-76
2022/08/03 04:52:12;;;;;;;7.63;4.93;;;;;;;21.05;100.00;98181.00;5013137;28;20072;-74
2022/08/03 04:54:39;;;;;;;9.73;5.40;;;;;;;20.44;100.00;98171.41;5013224;28;20026;-75
2022/08/03 04:57:05;;;;;;;5.70;5.10;;;;;;;20.12;100.00;98182.38;5013130;28;20478;-75
2022/08/03 04:59:30;;;;;;;5.43;4.70;;;;;;;19.92;100.00;98175.03;5013194;28;20045;-75
2022/08/03 05:01:55;;;;;;;6.07;5.18;;;;;;;20.08;100.00;98189.78;5013180;28;20061;-75
2022/08/03 05:04:21;;;;;;;6.55;5.43;;;;;;;20.26;100.00;98193.13;5012809;28;20071;-74
2022/08/03 05:06:47;;;;;;;6.78;5.05;;;;;;;20.37;100.00;98187.88;5012973;28;20075;-75
2022/08/03 05:09:12;;;;;;;5.50;4.90;;;;;;;20.36;100.00;98187.06;5012923;28;20026;-75
2022/08/03 05:11:37;;;;;;;12.73;5.40;;;;;;;20.50;100.00;98186.66;5012834;28;20056;-76
2022/08/03 05:14:03;;;;;;;8.65;4.97;;;;;;;20.52;100.00;98189.88;5012835;28;20124;-75
2022/08/03 05:16:28;;;;;;;7.50;4.82;;;;;;;20.67;100.00;98189.13;5011477;28;20030;-75
2022/08/03 05:18:53;;;;;;;6.28;5.18;;;;;;;20.79;100.00;98184.31;5012583;28;20046;-75
2022/08/03 05:21:19;;;;;;;6.13;4.35;;;;;;;21.60;100.00;98191.16;5012672;28;20022;-76
2022/08/03 05:23:44;;;;;;;8.25;5.13;;;;;;;21.44;100.00;98182.00;5012680;28;20096;-75
2022/08/03 05:26:12;;;;;;;7.70;5.63;;;;;;;20.83;100.00;98182.41;5012735;28;20525;-74
2022/08/03 05:28:38;;;;;;;11.20;5.43;;;;;;;20.93;100.00;98178.31;5012715;28;20039;-75
2022/08/03 05:31:04;;;;;;;6.97;5.40;;;;;;;20.93;100.00;98183.88;5012620;28;20018;-76
2022/08/03 05:33:29;;;;;;;9.80;5.80;;;;;;;21.14;100.00;98180.88;5012294;28;20034;-75
2022/08/03 05:35:55;;;;;;;9.75;5.60;;;;;;;20.80;100.00;98187.88;5012552;28;20499;-73
2022/08/03 05:38:20;;;;;;;7.45;5.60;;;;;;;20.68;100.00;98183.19;5012332;28;20076;-75
2022/08/03 05:40:45;;;;;;;6.55;5.13;;;;;;;20.80;100.00;98187.88;5012061;28;20041;-75
2022/08/03 05:43:11;;;;;;;7.72;5.25;;;;;;;20.88;100.00;98181.34;5012088;28;20041;-75
2022/08/03 05:45:37;;;;;;;6.72;5.43;;;;;;;21.12;100.00;98192.34;5012281;28;20109;-75
2022/08/03 05:48:04;;;;;;;7.80;5.32;;;;;;;21.48;100.00;98196.84;5012325;28;20030;-73
2022/08/03 05:50:29;;;;;;;7.70;5.18;;;;;;;21.47;100.00;98188.84;5012124;28;20030;-75
2022/08/03 05:52:56;;;;;;;7.43;5.63;;;;;;;21.06;100.00;98190.16;5012461;28;20030;-74
2022/08/03 05:55:22;;;;;;;7.15;5.07;;;;;;;21.24;100.00;98188.66;5017891;28;20029;-76
2022/08/03 05:57:47;;;;;;;11.80;5.78;;;;;;;21.20;100.00;98188.59;4997996;28;20112;-75
2022/08/03 06:00:13;;;;;;;7.78;5.10;;;;;;;21.35;100.00;98185.00;5011938;28;20033;-75
2022/08/03 06:02:39;;;;;;;8.20;5.22;;;;;;;21.47;100.00;98181.28;5011891;28;20018;-74
2022/08/03 06:05:05;;;;;;;7.50;5.32;;;;;;;21.53;100.00;98190.16;5011872;28;20109;-75
2022/08/03 06:07:31;;;;;;;8.05;5.72;;;;;;;21.89;100.00;98195.44;5011268;28;20193;-75
2022/08/03 06:09:56;;;;;;;8.32;5.43;;;;;;;22.93;100.00;98188.84;5011709;28;20123;-75
2022/08/03 06:12:22;;;;;;;9.68;5.32;;;;;;;23.17;95.99;98191.28;5011744;28;20053;-74
2022/08/03 06:14:47;;;;;;;7.85;4.82;;;;;;;22.53;98.81;98194.00;5011716;28;20076;-75
2022/08/03 06:17:12;;;;;;;10.35;5.03;;;;;;;22.14;100.00;98187.63;5011580;28;20037;-75
2022/08/03 06:19:38;;;;;;;7.38;5.18;;;;;;;22.25;100.00;98200.63;5011731;28;20034;-76
2022/08/03 06:22:04;;;;;;;9.45;5.28;;;;;;;22.68;99.30;98195.97;5011676;28;20022;-75
2022/08/03 06:24:29;;;;;;;11.45;5.55;;;;;;;22.75;97.64;98199.66;5011385;28;20537;-76
2022/08/03 06:26:55;;;;;;;9.95;5.10;;;;;;;22.64;97.55;98200.63;5011013;28;20028;-75
2022/08/03 06:29:20;;;;;;;9.45;5.40;;;;;;;22.93;94.80;98198.03;5011337;28;20475;-74
2022/08/03 06:31:47;;;;;;;9.00;5.63;;;;;;;22.84;94.32;98205.81;5011405;28;20055;-73
2022/08/03 06:34:12;;;;;;;7.03;4.63;;;;;;;23.09;92.98;98195.13;5011301;28;20057;-75
2022/08/03 06:36:38;;;;;;;7.43;4.90;;;;;;;23.13;91.88;98201.56;5011588;28;20481;-75
2022/08/03 06:39:04;;;;;;;8.90;5.07;;;;;;;23.08;91.74;98213.06;5011026;28;20069;-77
2022/08/03 06:41:29;;;;;;;7.82;4.65;;;;;;;22.65;94.97;98208.63;5011486;28;20120;-75
2022/08/03 06:43:55;;;;;;;7.13;4.45;;;;;;;22.90;93.47;98214.69;5011481;28;20036;-74
2022/08/03 06:46:21;;;;;;;7.07;4.70;;;;;;;23.31;92.15;98211.06;5011052;28;20030;-75
2022/08/03 06:48:46;;;;;;;7.38;4.68;;;;;;;23.48;90.70;98212.59;5010917;28;20076;-76
2022/08/03 06:51:12;;;;;;;7.75;5.00;;;;;;;23.75;89.05;98216.19;5011122;28;20018;-75
2022/08/03 06:53:37;;;;;;;5.45;4.40;;;;;;;23.88;88.06;98209.22;5011220;28;20028;-73
2022/08/03 06:56:06;;;;;;;7.13;4.50;;;;;;;23.87;87.19;98210.41;5010949;28;20037;-74
2022/08/03 06:58:32;;;;;;;12.93;5.05;;;;;;;23.78;88.18;98219.03;5010800;28;20038;-76
2022/08/03 07:00:57;;;;;;;6.65;4.72;;;;;;;23.94;86.09;98213.28;5010668;28;20049;-77
2022/08/03 07:03:23;;;;;;;7.70;5.47;;;;;;;23.95;85.20;98210.13;4992969;28;20061;-75
2022/08/03 07:05:49;;;;;;;5.25;4.28;;;;;;;24.00;85.57;98217.38;5010824;28;20022;-75
2022/08/03 07:08:15;;;;;;;5.20;4.43;;;;;;;23.93;86.92;98220.88;5010910;28;20022;-75
2022/08/03 07:10:40;;;;;;;5.82;4.60;;;;;;;24.07;86.09;98217.50;5011105;28;20030;-76
2022/08/03 07:13:05;;;;;;;7.95;4.30;;;;;;;24.00;86.16;98217.38;5010962;28;20026;-74
2022/08/03 07:15:31;;;;;;;7.47;5.03;;;;;;;24.21;84.93;98228.09;5010560;28;20045;-75
2022/08/03 07:17:56;;;;;;;9.80;4.43;;;;;;;24.23;84.06;98220.13;5010656;28;20498;-76
2022/08/03 07:20:22;;;;;;;11.40;4.47;;;;;;;24.09;83.67;98220.69;5010663;28;20396;-74
2022/08/03 07:22:47;;;;;;;9.75;3.85;;;;;;;24.07;83.33;98223.06;5010468;28;20026;-75
2022/08/03 07:25:13;;;;;;;4.72;3.83;;;;;;;24.13;83.15;98215.19;5014985;28;20033;-76
2022/08/03 07:27:42;;;;;;;5.78;4.15;;;;;;;24.55;80.85;98217.75;5015456;28;20030;-74
2022/08/03 07:30:08;;;;;;;6.43;4.25;;;;;;;24.55;80.43;98210.19;5014784;28;20052;-75
2022/08/03 07:32:34;;;;;;;11.23;4.13;;;;;;;24.60;78.49;98223.00;5011383;28;20109;-76
2022/08/03 07:34:59;;;;;;;4.18;3.70;;;;;;;24.95;76.51;98220.66;5011593;28;20030;-74
2022/08/03 07:37:25;;;;;;;4.22;3.63;;;;;;;24.92;76.10;98218.63;5010420;28;20491;-75
2022/08/03 07:39:50;;;;;;;4.20;3.60;;;;;;;24.82;76.01;98219.31;5012456;28;20096;-74
2022/08/03 07:42:15;;;;;;;5.95;4.05;;;;;;;24.93;76.01;98221.06;5014523;28;20065;-74
2022/08/03 07:44:41;;;;;;;5.55;3.83;;;;;;;24.87;77.65;98208.56;5014407;28;20125;-76
2022/08/03 07:47:06;;;;;;;6.88;3.80;;;;;;;25.08;76.79;98205.19;5014332;28;20478;-74
2022/08/03 07:49:31;;;;;;;7.00;3.67;;;;;;;25.62;74.74;98210.13;5014368;28;20438;-75
2022/08/03 07:54:42;;;;;;;8.30;4.18;;;;;;;25.98;73.62;98208.38;5014489;28;20073;-76
2022/08/03 07:57:07;;;;;;;4.65;3.90;;;;;;;26.25;73.44;98200.56;5014356;28;20033;-74
2022/08/03 07:59:34;;;;;;;6.07;3.95;;;;;;;27.15;67.69;98215.34;4996644;28;20417;-76
2022/08/03 08:01:59;;;;;;;7.32;3.90;;;;;;;27.68;63.18;98204.19;5013974;28;20109;-75
2022/08/03 08:04:24;;;;;;;7.82;4.18;;;;;;;28.98;58.15;98211.47;5014413;28;20151;-75
2022/08/03 08:06:50;;;;;;;4.22;3.80;;;;;;;30.23;53.87;98212.94;5014032;28;20496;-75
2022/08/03 08:09:15;;;;;;;7.28;4.00;;;;;;;30.15;53.65;98211.41;4997772;28;20026;-75
2022/08/03 08:11:40;;;;;;;4.43;4.03;;;;;;;31.00;51.07;98213.28;5026173;28;20502;-74
2022/08/03 08:14:06;;;;;;;5.03;3.50;;;;;;;33.57;43.49;98218.19;5016091;28;20423;-75
2022/08/03 08:16:32;;;;;;;4.88;3.72;;;;;;;34.56;40.43;98215.63;5013721;28;20501;-73
2022/08/03 08:18:57;;;;;;;7.13;3.63;;;;;;;35.57;37.54;98221.56;5013514;28;20022;-75
2022/08/03 08:21:23;;;;;;;4.30;3.50;;;;;;;36.48;34.91;98219.69;5013760;28;20113;-75
2022/08/03 08:23:48;;;;;;;7.00;3.50;;;;;;;37.22;33.81;98225.50;5013708;28;20421;-75
2022/08/03 08:26:14;;;;;;;4.43;3.58;;;;;;;37.11;33.50;98230.03;5013719;28;20116;-75
2022/08/03 08:28:39;;;;;;;5.93;3.45;;;;;;;36.09;35.03;98221.06;5013600;28;20031;-75
2022/08/03 08:31:06;;;;;;;4.45;3.90;;;;;;;35.89;35.45;98218.47;5013684;28;20475;-76
2022/08/03 08:33:33;;;;;;;6.35;3.53;;;;;;;37.16;33.07;98223.72;4995910;28;20406;-74
2022/08/03 08:35:58;;;;;;;4.03;3.55;;;;;;;36.98;32.93;98222.31;4995862;28;20105;-73
2022/08/03 08:38:25;;;;;;;5.40;3.33;;;;;;;36.50;33.63;98220.03;5013319;28;20026;-75
2022/08/03 08:40:50;;;;;;;8.05;3.35;;;;;;;37.03;32.63;98214.47;5013374;28;20426;-73
2022/08/03 08:43:16;;;;;;;5.60;3.45;;;;;;;38.09;31.18;98219.53;5013342;28;20026;-73
2022/08/03 08:45:41;;;;;;;5.93;3.60;;;;;;;38.54;30.31;98221.66;5013361;28;20022;-75
2022/08/03 08:48:08;;;;;;;4.15;3.65;;;;;;;38.17;30.79;98220.00;5013195;28;20026;-73
2022/08/03 08:50:36;;;;;;;11.05;3.55;;;;;;;37.54;31.68;98222.19;5012681;28;20113;-75
2022/08/03 08:53:02;;;;;;;4.82;3.97;;;;;;;37.46;31.74;98209.47;5013112;28;20038;-75
2022/08/03 08:55:29;;;;;;;6.13;3.47;;;;;;;37.33;31.99;98214.47;4995503;28;20030;-74
2022/08/03 08:58:00;;;;;;;4.25;3.65;;;;;;;35.86;33.49;98208.00;5013161;28;20064;-73
2022/08/03 09:00:25;;;;;;;7.53;3.30;;;;;;;37.19;32.55;98208.50;5012990;28;20084;-74
2022/08/03 09:02:50;;;;;;;4.70;3.38;;;;;;;38.75;29.98;98208.47;5013009;28;20509;-75
2022/08/03 09:05:17;;;;;;;9.40;3.88;;;;;;;36.66;32.79;98211.31;5012925;28;20096;-73
2022/08/03 09:07:46;;;;;;;4.53;3.33;;;;;;;35.68;34.50;98185.00;5012979;28;20030;-74
2022/08/03 09:10:13;;;;;;;5.93;3.80;;;;;;;36.20;33.51;98192.22;5012657;28;20184;-76
2022/08/03 09:12:43;;;;;;;6.00;3.30;;;;;;;36.99;32.27;98195.41;5012684;28;20470;-75
2022/08/03 09:15:19;;;;;;;5.15;3.33;;;;;;;36.97;32.19;98199.94;5012808;28;20037;-72
2022/08/03 09:17:44;;;;;;;5.70;3.72;;;;;;;34.85;35.50;98182.31;5012760;28;20057;-75
2022/08/03 09:20:11;;;;;;;4.13;3.50;;;;;;;37.14;32.93;98195.66;5012555;28;20061;-73
2022/08/03 09:22:50;;;;;;;4.25;3.22;;;;;;;37.03;32.42;98195.25;4994775;28;20093;-73
2022/08/03 09:25:16;;;;;;;5.30;3.70;;;;;;;37.99;30.84;98189.34;5013149;28;20109;-75
2022/08/03 09:27:43;;;;;;;4.30;3.50;;;;;;;36.04;34.05;98192.34;5015312;28;20117;-75
2022/08/03 09:30:15;;;;;;;3.90;3.35;;;;;;;33.53;38.40;98174.09;5012715;28;20318;-75
2022/08/03 09:32:43;;;;;;;4.25;3.85;;;;;;;35.28;35.69;98176.13;4994519;28;20026;-75
2022/08/03 09:35:09;;;;;;;4.72;3.20;;;;;;;37.60;32.11;98187.28;5012279;28;20030;-74
2022/08/03 09:37:34;;;;;;;4.38;3.50;;;;;;;38.21;30.85;98178.56;5012235;28;20117;-74
2022/08/03 09:39:59;;;;;;;6.60;3.22;;;;;;;37.41;32.48;98183.53;5012069;28;20041;-75
2022/08/03 09:42:26;;;;;;;4.75;3.30;;;;;;;35.92;34.39;98182.56;5012420;28;20038;-74
2022/08/03 09:44:52;;;;;;;3.88;3.03;;;;;;;36.12;34.17;98170.94;5011902;28;20033;-75
2022/08/03 09:47:29;;;;;;;5.50;3.33;;;;;;;37.53;31.52;98180.59;5012176;28;20033;-75
2022/08/03 09:50:00;;;;;;;4.18;3.35;;;;;;;37.37;31.70;98169.41;5012228;28;20034;-74
2022/08/03 09:52:33;;;;;;;6.15;3.20;;;;;;;34.79;35.17;98161.38;5012187;28;20034;-73
2022/08/03 09:55:00;;;;;;;3.95;3.50;;;;;;;32.98;39.76;98160.81;5012034;28;20040;-73
2022/08/03 09:57:27;;;;;;;4.72;3.50;;;;;;;33.45;39.51;98156.47;5011796;28;20479;-74
2022/08/03 09:59:57;;;;;;;8.15;4.20;;;;;;;36.51;34.52;98168.25;5011771;28;20438;-76
2022/08/03 10:02:26;;;;;;;3.80;3.40;;;;;;;37.18;33.00;98166.97;5011207;28;20022;-74
2022/08/03 10:04:53;;;;;;;5.20;3.50;;;;;;;35.73;34.89;98167.34;5011920;28;20131;-74
2022/08/03 10:07:23;;;;;;;4.63;3.40;;;;;;;34.97;36.83;98155.94;5011779;28;20434;-74
2022/08/03 10:10:01;;;;;;;4.22;3.70;;;;;;;35.92;34.95;98159.78;5011681;28;20104;-73
2022/08/03 10:12:28;;;;;;;4.43;3.30;;;;;;;34.87;36.66;98157.06;5011532;28;20060;-73
2022/08/03 10:14:54;;;;;;;5.50;4.10;;;;;;;35.87;34.93;98155.47;5011662;28;20100;-74
2022/08/03 10:17:21;;;;;;;5.85;3.80;;;;;;;35.58;35.17;98163.41;5011618;28;20021;-74
2022/08/03 10:19:47;;;;;;;3.90;3.45;;;;;;;34.66;37.21;98140.66;4993523;28;20030;-75
2022/08/03 10:22:17;;;;;;;3.72;3.17;;;;;;;35.90;35.17;98150.91;5011535;28;20036;-74
2022/08/03 10:24:48;;;;;;;3.78;3.30;;;;;;;35.77;34.52;98153.78;5012212;28;20083;-74
2022/08/03 10:27:15;;;;;;;3.50;3.20;;;;;;;34.26;36.28;98136.53;5026612;28;20034;-76
2022/08/03 10:29:44;;;;;;;3.50;3.10;;;;;;;33.99;36.96;98136.03;5015160;28;20382;-74
2022/08/03 10:32:24;;;;;;;3.33;3.00;;;;;;;34.04;36.15;98126.97;5011216;28;20069;-75
2022/08/03 10:34:51;;;;;;;3.65;2.97;;;;;;;34.13;35.98;98136.47;5011130;28;20038;-75
2022/08/03 10:37:17;;;;;;;3.40;3.10;;;;;;;36.15;32.66;98135.81;5011178;28;20064;-74
2022/08/03 10:40:01;;;;;;;3.40;3.05;;;;;;;37.38;29.85;98124.53;5010697;28;20438;-76
2022/08/03 10:42:30;;;;;;;3.50;3.20;;;;;;;37.45;30.45;98124.25;5010911;28;20056;-75
2022/08/03 10:45:03;;;;;;;3.70;3.30;;;;;;;36.83;31.21;98124.28;5011077;28;20455;-75
2022/08/03 10:47:30;;;;;;;3.40;2.97;;;;;;;34.59;34.68;98106.69;5010808;28;20034;-74
2022/08/03 10:49:56;;;;;;;3.45;3.15;;;;;;;34.14;35.70;98098.31;5010799;28;20116;-74
2022/08/03 10:52:22;;;;;;;4.63;3.17;;;;;;;33.03;37.40;98100.72;5010540;28;20165;-75
2022/08/03 10:57:53;;;;;;;3.90;3.50;;;;;;;31.33;41.52;98092.78;5011235;28;20036;-74
2022/08/03 11:00:21;;;;;;;5.15;3.25;;;;;;;30.84;41.54;98087.91;5010646;28;20574;-75
2022/08/03 11:03:03;;;;;;;5.53;3.53;;;;;;;30.66;41.93;98088.19;5010924;28;20034;-75
2022/08/03 11:05:53;;;;;;;4.05;3.10;;;;;;;30.44;42.23;98072.75;5011040;28;20036;-75
2022/08/03 11:08:26;;;;;;;3.45;3.13;;;;;;;30.25;43.33;98075.00;4992722;28;20042;-74
2022/08/03 11:10:55;;;;;;;4.97;3.22;;;;;;;29.75;42.41;98069.13;5011034;28;20386;-76
2022/08/03 11:13:23;;;;;;;3.65;3.28;;;;;;;30.11;41.82;98068.72;5011117;28;20026;-75
2022/08/03 11:15:50;;;;;;;3.83;3.20;;;;;;;29.95;41.37;98074.13;5011051;28;20390;-74
2022/08/03 11:18:16;;;;;;;4.57;3.50;;;;;;;29.82;40.46;98070.25;5011127;28;20026;-75
2022/08/03 11:20:55;;;;;;;5.15;3.55;;;;;;;29.16;42.22;98056.38;5011007;28;20026;-74
2022/08/03 11:23:47;;;;;;;11.77;6.00;;;;;;;29.70;42.27;98058.28;5011222;28;20483;-74
2022/08/03 11:26:17;;;;;;;3.45;3.15;;;;;;;29.91;42.05;98064.94;5011195;28;20030;-74
2022/08/03 11:28:44;;;;;;;4.05;3.35;;;;;;;29.79;42.96;98054.16;5010788;28;20026;-75
2022/08/03 11:31:22;;;;;;;5.70;3.63;;;;;;;29.84;42.06;98050.91;5010654;28;20505;-74
2022/08/03 11:34:08;;;;;;;5.35;3.78;;;;;;;29.82;41.61;98051.34;4992901;28;20164;-76
2022/08/03 11:37:11;;;;;;;3.47;3.17;;;;;;;29.36;43.16;98046.13;5010743;28;20376;-75
2022/08/03 11:39:45;;;;;;;8.82;3.47;;;;;;;29.16;43.20;98043.06;5010302;28;20058;-74
2022/08/03 11:42:26;;;;;;;3.60;3.10;;;;;;;29.45;43.28;98052.09;5010986;28;20398;-74
2022/08/03 11:44:56;;;;;;;4.78;3.20;;;;;;;29.51;42.29;98044.78;5010932;28;20050;-75
2022/08/03 11:47:25;;;;;;;4.75;3.10;;;;;;;29.73;41.41;98032.03;5010594;28;20025;-75